Mayer, AZ

12:43 AM MST on February 06, 2016 (GMT -0700)
Cordes Lakes, AZ | | Change Station
CLOSE
Current Station
Personal Weather Station
Location: Mayer, AZ
Elevation: 3661 ft
Nearby Weather Stations

Elev 3661 ft 34.30 °N, 112.10 °W | Updated 13 minutes ago

Clear
Clear
31.3 °F
Feels Like 31 °F
N
2.2
Wind Variable Wind from NW

Today
High -- | Low -- °F
--% Chance of Precip.
Yesterday
High -- | Low -- °F
Precip. -- in
Pressure 30.42 in
Visibility 10.0 miles
Clouds Clear
Windchill 31 °F
Dew Point 16 °F
Humidity 53%
Rainfall 0.00 in
Snow Depth Not available.
7:22 AM 6:03 PM
Waning Crescent, 7% visible
METAR KPRC 060653Z AUTO 00000KT 10SM CLR M02/M09 A3044 RMK AO2 SLP299 T10171094 401001050
Pressure 30.42 in
Visibility 10.0 miles
Clouds Clear
Windchill 31 °F
Dew Point 16 °F
Humidity 53%
Rainfall 0.00 in
Snow Depth Not available.
7:22 AM 6:03 PM
Waning Crescent, 7% visible
METAR KPRC 060653Z AUTO 00000KT 10SM CLR M02/M09 A3044 RMK AO2 SLP299 T10171094 401001050

10-Day Weather Forecast

Almanac

Astronomy

Feb. 06, 2016 Rise Set
Actual Time
Civil Twilight
Nautical Twilight
Astronomical Twilight
Moon
Length of Visible Light
Length of Day
Tomorrow will be .
, % of the Moon is Illuminated

Today's Extremes

State Highs State Lows

Community

WunderPhotos

Upload Photos

1,890,933 photos uploaded!

WunderBlog® & News

Nearby

Air Quality

  Air Quality AQ Index Pollutant
Not available.

Snow Depth

Station Depth Elevation

Earthquake Activity

City Distance Mag. Time & Date
Minimum magnitude displayed is 2.5.

Coastal Water Temperatures

Place Temperature

Stations

Nearby Weather Stations

Station Location Temp. Windchill Dew Point Humidity Wind Precip. Elev Updated Type
                   

Watches & Warnings

There are currently no watches in effect.